Time;durP1;ratioP1;P1;durP2;ratioP2;P2;SDS_P1;SDS_P2;PMS_P1;PMS_P2;Temp;Humidity;BMP_temperature;BMP_pressure;BME280_temperature;BME280_humidity;BME280_pressure;Samples;Min_cycle;Max_cycle;Signal;HPM_P1;HPM_P2
2022/02/10 00:06:03;;;;;;;4.00;3.70;;;;;;;;;;5073536;28;20303;-90
2022/02/10 00:19:46;;;;;;;4.33;3.93;;;;;;;;;;5093439;28;20176;-90
2022/02/10 00:22:18;;;;;;;5.37;4.87;;;;;;;;;;5093283;28;20231;-90
2022/02/10 00:36:09;;;;;;;4.77;4.33;;;;;;;;;;5087893;28;20223;-89
2022/02/10 00:38:42;;;;;;;4.50;3.80;;;;;;;;;;5093159;28;20257;-90
2022/02/10 00:41:09;;;;;;;4.73;4.33;;;;;;;;;;5092905;28;20224;-90
2022/02/10 00:43:37;;;;;;;5.20;4.30;;;;;;;;;;5093369;28;20192;-89
2022/02/10 00:46:04;;;;;;;5.03;4.50;;;;;;;;;;5093697;28;20193;-89
2022/02/10 00:48:31;;;;;;;4.67;4.27;;;;;;;;;;5093266;28;20239;-89
2022/02/10 00:50:59;;;;;;;5.83;4.73;;;;;;;;;;5092813;28;20196;-89
2022/02/10 00:53:30;;;;;;;5.53;5.03;;;;;;;;;;5093088;28;20623;-90
2022/02/10 00:55:57;;;;;;;4.87;4.40;;;;;;;;;;5093305;28;20204;-90
2022/02/10 00:58:27;;;;;;;4.93;4.53;;;;;;;;;;5092934;28;20286;-89
2022/02/10 01:31:18;;;;;;;5.60;4.20;;;;;;;;;;5096032;28;20179;-90
2022/02/10 01:33:45;;;;;;;5.23;4.07;;;;;;;;;;5096579;28;20612;-90
2022/02/10 01:36:13;;;;;;;6.60;4.57;;;;;;;;;;5096234;28;20200;-90
2022/02/10 01:38:40;;;;;;;6.40;4.90;;;;;;;;;;5095974;28;20620;-90
2022/02/10 01:58:08;;;;;;;4.43;4.03;;;;;;;;;;5014216;28;20190;-90
2022/02/10 02:03:25;;;;;;;4.73;3.87;;;;;;;;;;5095843;28;20300;-90
2022/02/10 02:05:59;;;;;;;4.00;3.43;;;;;;;;;;5095139;28;20191;-90
2022/02/10 02:08:29;;;;;;;4.87;4.13;;;;;;;;;;5095530;28;20191;-90
2022/02/10 02:10:56;;;;;;;4.00;3.63;;;;;;;;;;5095298;28;20196;-90
2022/02/10 02:13:25;;;;;;;3.67;3.37;;;;;;;;;;5096014;28;20271;-89
2022/02/10 02:15:53;;;;;;;5.77;4.03;;;;;;;;;;5095149;28;20687;-89
2022/02/10 02:18:20;;;;;;;3.90;3.47;;;;;;;;;;5094915;28;20192;-89
2022/02/10 02:20:49;;;;;;;5.80;3.60;;;;;;;;;;5095244;28;20572;-90
2022/02/10 02:23:19;;;;;;;4.27;3.87;;;;;;;;;;5095508;28;20251;-89
2022/02/10 02:25:49;;;;;;;5.20;4.40;;;;;;;;;;5095380;28;20287;-90
2022/02/10 02:28:17;;;;;;;4.20;3.87;;;;;;;;;;5094828;28;20184;-91
2022/02/10 02:30:49;;;;;;;4.53;4.13;;;;;;;;;;5095039;28;20279;-90
2022/02/10 02:39:04;;;;;;;3.67;3.37;;;;;;;;;;5076951;28;20231;-90
2022/02/10 03:04:23;;;;;;;5.27;4.60;;;;;;;;;;5093995;28;20274;-90
2022/02/10 03:06:54;;;;;;;5.57;5.07;;;;;;;;;;5093944;28;20188;-92
2022/02/10 03:09:25;;;;;;;5.13;4.63;;;;;;;;;;5094487;28;20605;-90
2022/02/10 03:11:55;;;;;;;5.60;4.60;;;;;;;;;;5094729;28;20191;-92
2022/02/10 03:14:27;;;;;;;8.60;6.53;;;;;;;;;;5093953;28;20185;-92
2022/02/10 03:17:30;;;;;;;8.63;7.10;;;;;;;;;;5093842;28;20663;-90
2022/02/10 03:20:07;;;;;;;7.13;6.37;;;;;;;;;;5094000;28;20184;-92
2022/02/10 03:23:03;;;;;;;7.90;6.10;;;;;;;;;;5094215;28;20223;-92
2022/02/10 04:07:18;;;;;;;4.60;4.10;;;;;;;;;;5131925;27;20539;-88
2022/02/10 04:15:27;;;;;;;4.23;3.87;;;;;;;;;;5113427;27;20197;-89
2022/02/10 04:18:26;;;;;;;4.60;3.30;;;;;;;;;;5128759;27;20663;-87
2022/02/10 04:21:01;;;;;;;5.13;4.10;;;;;;;;;;5131954;27;20218;-91
2022/02/10 04:23:43;;;;;;;7.97;6.53;;;;;;;;;;5131531;27;20190;-90
2022/02/10 04:26:22;;;;;;;7.90;6.67;;;;;;;;;;5131174;27;20256;-91
2022/02/10 04:38:19;;;;;;;5.83;4.73;;;;;;;;;;5074850;27;20224;-85
2022/02/10 04:44:17;;;;;;;7.13;5.77;;;;;;;;;;5107564;27;20204;-86
2022/02/10 04:55:34;;;;;;;3.60;3.30;;;;;;;;;;5152191;27;20674;-88
2022/02/10 05:01:00;;;;;;;5.10;4.30;;;;;;;;;;5150093;27;20262;-87
2022/02/10 05:04:03;;;;;;;3.50;3.20;;;;;;;;;;5151231;27;20194;-88
2022/02/10 05:17:50;;;;;;;3.70;3.40;;;;;;;;;;5150561;27;20607;-86
2022/02/10 05:20:31;;;;;;;4.00;3.60;;;;;;;;;;5150246;27;20315;-86
2022/02/10 05:23:17;;;;;;;4.83;3.30;;;;;;;;;;5150277;27;20179;-85
2022/02/10 05:31:58;;;;;;;8.27;6.57;;;;;;;;;;5149931;27;20186;-85
2022/02/10 05:34:31;;;;;;;5.07;4.53;;;;;;;;;;5149192;27;20686;-87
2022/02/10 05:37:01;;;;;;;4.20;3.80;;;;;;;;;;5150749;27;20177;-86
2022/02/10 05:39:30;;;;;;;5.00;4.50;;;;;;;;;;5150290;27;20233;-86
2022/02/10 05:42:29;;;;;;;4.47;4.07;;;;;;;;;;5150472;27;20283;-86
2022/02/10 05:45:06;;;;;;;5.80;5.10;;;;;;;;;;5142905;27;20732;-86
2022/02/10 05:47:52;;;;;;;9.53;8.20;;;;;;;;;;5136426;27;20185;-86
2022/02/10 05:53:50;;;;;;;13.03;11.83;;;;;;;;;;5122019;27;20223;-85
2022/02/10 05:56:23;;;;;;;18.23;15.07;;;;;;;;;;5136482;27;20283;-86
2022/02/10 05:59:22;;;;;;;16.60;15.00;;;;;;;;;;5136361;27;20298;-86
2022/02/10 06:02:28;;;;;;;14.43;13.13;;;;;;;;;;5135859;27;20178;-85
2022/02/10 06:49:26;;;;;;;8.43;7.63;;;;;;;;;;5135974;27;20724;-92
2022/02/10 06:51:59;;;;;;;9.40;8.43;;;;;;;;;;5137552;27;20211;-92
2022/02/10 06:54:42;;;;;;;14.40;9.47;;;;;;;;;;5135644;27;20242;-92
2022/02/10 07:05:48;;;;;;;18.37;11.33;;;;;;;;;;5131971;27;20199;-92
2022/02/10 07:11:20;;;;;;;33.70;26.30;;;;;;;;;;5084808;27;20277;-92
2022/02/10 07:50:19;;;;;;;39.60;23.83;;;;;;;;;;5134984;27;20313;-91
2022/02/10 07:56:09;;;;;;;7.93;6.27;;;;;;;;;;5134941;27;20182;-91
2022/02/10 07:59:03;;;;;;;8.47;5.70;;;;;;;;;;5134317;27;20202;-91
2022/02/10 08:05:10;;;;;;;5.93;5.10;;;;;;;;;;5134419;27;20174;-91
2022/02/10 08:57:35;;;;;;;6.97;4.83;;;;;;;;;;5151415;27;20182;-92
2022/02/10 09:03:11;;;;;;;5.43;4.70;;;;;;;;;;5151792;27;20253;-92
2022/02/10 09:05:49;;;;;;;5.47;3.90;;;;;;;;;;5151475;27;20214;-92
2022/02/10 09:11:42;;;;;;;3.70;3.00;;;;;;;;;;5093370;27;20199;-92
2022/02/10 09:17:24;;;;;;;3.60;3.30;;;;;;;;;;5152407;27;20182;-92
2022/02/10 09:47:49;;;;;;;22.07;13.87;;;;;;;;;;5136838;27;20611;-93
2022/02/10 09:56:44;;;;;;;10.30;8.30;;;;;;;;;;5137005;27;20186;-93
2022/02/10 09:59:31;;;;;;;6.30;5.70;;;;;;;;;;5136289;27;20606;-92
2022/02/10 10:02:05;;;;;;;6.20;4.90;;;;;;;;;;5136797;27;20282;-93
2022/02/10 10:04:42;;;;;;;10.80;6.07;;;;;;;;;;5136371;27;20191;-92
2022/02/10 10:07:19;;;;;;;3.57;3.27;;;;;;;;;;5136377;27;20179;-92
2022/02/10 10:09:59;;;;;;;3.97;3.63;;;;;;;;;;5136302;27;20207;-92
2022/02/10 10:13:05;;;;;;;3.53;3.23;;;;;;;;;;5136393;27;20183;-92
2022/02/10 10:15:47;;;;;;;6.43;4.27;;;;;;;;;;5136292;27;20281;-92
2022/02/10 10:21:17;;;;;;;6.87;6.30;;;;;;;;;;5130928;27;20247;-92
2022/02/10 10:23:59;;;;;;;4.97;4.40;;;;;;;;;;5136733;27;20179;-93
2022/02/10 10:52:50;;;;;;;6.27;5.50;;;;;;;;;;5071917;28;20177;-93
2022/02/10 10:58:01;;;;;;;5.93;4.10;;;;;;;;;;5132741;27;20199;-92
2022/02/10 11:01:09;;;;;;;3.73;3.43;;;;;;;;;;5135460;27;20226;-94
2022/02/10 11:03:46;;;;;;;7.73;6.43;;;;;;;;;;5135023;27;20194;-93
2022/02/10 11:37:16;;;;;;;6.80;5.90;;;;;;;;;;5134814;27;20177;-93
2022/02/10 11:40:05;;;;;;;16.20;12.07;;;;;;;;;;5134720;27;20206;-94
2022/02/10 11:42:46;;;;;;;17.80;14.23;;;;;;;;;;5134528;27;20181;-93
2022/02/10 12:01:24;;;;;;;8.00;7.20;;;;;;;;;;5134762;27;20175;-93
2022/02/10 13:03:22;;;;;;;3.50;3.20;;;;;;;;;;5134283;28;20183;-93
2022/02/10 14:10:06;;;;;;;7.77;7.07;;;;;;;;;;5136580;27;20604;-94
2022/02/10 14:12:55;;;;;;;12.80;11.77;;;;;;;;;;5136251;27;20190;-93
2022/02/10 14:15:39;;;;;;;11.27;10.00;;;;;;;;;;5136505;27;20183;-93
2022/02/10 14:18:24;;;;;;;6.10;5.53;;;;;;;;;;5136344;27;20275;-93
2022/02/10 14:21:00;;;;;;;9.40;5.23;;;;;;;;;;5136131;27;20222;-94
2022/02/10 14:29:06;;;;;;;6.53;5.97;;;;;;;;;;5099652;27;20226;-93
2022/02/10 14:31:33;;;;;;;7.83;7.13;;;;;;;;;;5136128;27;20252;-94
2022/02/10 14:34:01;;;;;;;8.23;7.43;;;;;;;;;;5136195;27;20226;-92
2022/02/10 14:36:37;;;;;;;25.67;9.13;;;;;;;;;;5135798;27;20195;-93
2022/02/10 14:39:25;;;;;;;11.67;10.63;;;;;;;;;;5136240;27;20191;-94
2022/02/10 14:42:20;;;;;;;7.47;6.87;;;;;;;;;;5136413;27;20241;-94
2022/02/10 15:49:07;;;;;;;18.27;13.63;;;;;;;;;;5135652;27;20248;-94
2022/02/10 15:52:00;;;;;;;59.70;32.57;;;;;;;;;;5134775;27;20196;-93
2022/02/10 16:11:20;;;;;;;12.17;9.87;;;;;;;;;;5134118;27;20186;-89
2022/02/10 16:19:10;;;;;;;12.07;10.30;;;;;;;;;;5120735;27;20213;-91
2022/02/10 16:21:44;;;;;;;24.90;22.63;;;;;;;;;;5134281;27;20221;-91
2022/02/10 16:24:18;;;;;;;7.20;6.47;;;;;;;;;;5134324;27;20210;-91
2022/02/10 16:26:56;;;;;;;16.30;11.67;;;;;;;;;;5134096;27;20183;-90
2022/02/10 16:29:24;;;;;;;13.67;12.23;;;;;;;;;;5133604;28;20291;-89
2022/02/10 16:31:52;;;;;;;15.93;14.27;;;;;;;;;;5133826;28;20198;-90
2022/02/10 16:34:21;;;;;;;8.03;7.27;;;;;;;;;;5133790;28;20718;-88
2022/02/10 16:36:48;;;;;;;7.20;6.53;;;;;;;;;;5133982;28;20195;-89
2022/02/10 16:39:17;;;;;;;13.03;11.63;;;;;;;;;;5133739;28;20202;-88
2022/02/10 16:41:45;;;;;;;11.90;10.40;;;;;;;;;;5134069;28;20201;-90
2022/02/10 16:44:12;;;;;;;9.53;8.53;;;;;;;;;;5133901;28;20697;-89
2022/02/10 16:46:40;;;;;;;12.00;10.90;;;;;;;;;;5133700;28;20197;-91
2022/02/10 16:49:07;;;;;;;13.77;12.53;;;;;;;;;;5133708;27;20232;-90
2022/02/10 16:51:38;;;;;;;9.10;8.10;;;;;;;;;;5137681;27;20190;-88
2022/02/10 16:54:13;;;;;;;12.50;10.03;;;;;;;;;;5137805;27;20187;-89
2022/02/10 16:56:56;;;;;;;15.10;11.30;;;;;;;;;;5137926;27;20567;-90
2022/02/10 17:02:27;;;;;;;8.83;7.93;;;;;;;;;;5136941;27;20259;-89
2022/02/10 17:19:02;;;;;;;5.47;4.90;;;;;;;;;;5137208;27;20265;-87
2022/02/10 17:25:07;;;;;;;7.33;5.90;;;;;;;;;;5136956;27;20183;-87
2022/02/10 17:27:11;;;;;;;9.57;8.57;;;;;;;;;;5137039;27;20174;-88
2022/02/10 17:30:02;;;;;;;5.60;5.00;;;;;;;;;;5118032;27;20236;-88
2022/02/10 17:32:45;;;;;;;7.27;4.77;;;;;;;;;;5116439;28;20215;-89
2022/02/10 17:35:20;;;;;;;6.13;5.63;;;;;;;;;;5116520;28;20180;-89
2022/02/10 17:46:07;;;;;;;7.37;6.37;;;;;;;;;;5116522;28;20184;-88
2022/02/10 17:54:04;;;;;;;25.43;19.23;;;;;;;;;;5108818;28;20195;-89
2022/02/10 17:56:33;;;;;;;136.43;62.67;;;;;;;;;;5115882;28;20206;-89
2022/02/10 17:59:01;;;;;;;61.13;31.03;;;;;;;;;;5115883;28;20196;-89
2022/02/10 18:01:29;;;;;;;11.10;7.57;;;;;;;;;;5115225;28;20660;-89
2022/02/10 18:03:56;;;;;;;27.80;15.80;;;;;;;;;;5118506;28;20199;-88
2022/02/10 18:06:26;;;;;;;8.80;6.77;;;;;;;;;;5116123;28;20227;-89
2022/02/10 18:14:46;;;;;;;87.40;55.13;;;;;;;;;;5115795;28;20183;-89
2022/02/10 18:17:20;;;;;;;99.20;61.73;;;;;;;;;;5115774;28;20659;-89
2022/02/10 18:19:51;;;;;;;17.73;13.83;;;;;;;;;;5115771;28;20188;-89
2022/02/10 18:22:34;;;;;;;27.87;21.30;;;;;;;;;;5115841;28;20219;-88
2022/02/10 18:25:18;;;;;;;44.83;33.63;;;;;;;;;;5115891;28;20633;-91
2022/02/10 18:28:01;;;;;;;50.03;38.87;;;;;;;;;;5115604;28;20195;-88
2022/02/10 18:33:20;;;;;;;36.47;29.07;;;;;;;;;;5115886;28;20710;-89
2022/02/10 18:33:31;;;;;;;107.83;69.20;;;;;;;;;;5115570;28;20211;-89
2022/02/10 19:09:07;;;;;;;28.63;21.13;;;;;;;;;;5114634;28;20179;-91
2022/02/10 19:11:38;;;;;;;34.20;22.63;;;;;;;;;;5114522;28;20265;-91
2022/02/10 19:14:07;;;;;;;43.27;25.63;;;;;;;;;;5113510;28;20541;-90
2022/02/10 19:16:35;;;;;;;29.53;20.60;;;;;;;;;;5114750;28;20223;-90
2022/02/10 19:19:04;;;;;;;17.77;14.93;;;;;;;;;;5114741;28;20315;-90
2022/02/10 19:21:32;;;;;;;19.37;14.37;;;;;;;;;;5114649;28;20199;-90
2022/02/10 19:23:59;;;;;;;28.30;20.83;;;;;;;;;;5114517;28;20199;-90
2022/02/10 19:26:26;;;;;;;91.13;54.80;;;;;;;;;;5114272;28;20645;-90
2022/02/10 19:28:54;;;;;;;52.90;33.10;;;;;;;;;;5114074;28;20317;-90
2022/02/10 19:31:22;;;;;;;117.37;64.37;;;;;;;;;;5114016;28;20309;-90
2022/02/10 19:33:53;;;;;;;109.17;64.63;;;;;;;;;;5114215;28;20191;-90
2022/02/10 19:36:22;;;;;;;104.53;54.40;;;;;;;;;;5114330;28;20253;-91
2022/02/10 19:38:50;;;;;;;65.43;39.83;;;;;;;;;;5114089;28;20199;-89
2022/02/10 19:41:17;;;;;;;51.00;34.43;;;;;;;;;;5113575;28;20187;-90
2022/02/10 19:43:44;;;;;;;36.43;26.13;;;;;;;;;;5113899;28;20191;-90
2022/02/10 19:46:12;;;;;;;38.20;25.27;;;;;;;;;;5114401;28;20199;-91
2022/02/10 19:48:40;;;;;;;22.57;16.37;;;;;;;;;;5114297;28;20582;-90
2022/02/10 19:51:08;;;;;;;18.63;13.40;;;;;;;;;;5113626;28;20233;-90
2022/02/10 19:53:36;;;;;;;14.40;10.27;;;;;;;;;;5113940;28;20202;-87
2022/02/10 19:56:03;;;;;;;11.07;9.90;;;;;;;;;;5113937;28;20203;-87
2022/02/10 19:58:31;;;;;;;14.77;11.67;;;;;;;;;;5114331;28;20245;-89
2022/02/10 20:01:01;;;;;;;23.93;18.93;;;;;;;;;;5113483;28;20195;-89
2022/02/10 20:03:31;;;;;;;21.40;17.40;;;;;;;;;;5113696;28;20642;-88
2022/02/10 20:06:00;;;;;;;17.77;14.23;;;;;;;;;;5113274;28;20308;-87
2022/02/10 20:08:29;;;;;;;19.73;14.43;;;;;;;;;;5113602;28;20279;-88
2022/02/10 20:10:57;;;;;;;17.67;14.63;;;;;;;;;;5114052;28;20277;-87
2022/02/10 20:13:25;;;;;;;15.83;11.90;;;;;;;;;;5113613;28;20236;-88
2022/02/10 20:15:53;;;;;;;13.63;10.17;;;;;;;;;;5113688;28;20203;-86
2022/02/10 20:18:20;;;;;;;12.43;9.00;;;;;;;;;;5113683;28;20195;-88
2022/02/10 20:20:53;;;;;;;10.63;7.60;;;;;;;;;;5113323;28;20751;-88
2022/02/10 20:23:21;;;;;;;8.80;7.43;;;;;;;;;;5112899;28;20223;-87
2022/02/10 20:25:50;;;;;;;9.33;6.10;;;;;;;;;;5112930;28;20244;-87
2022/02/10 20:28:19;;;;;;;6.23;5.23;;;;;;;;;;5112661;28;20237;-87
2022/02/10 20:30:47;;;;;;;8.17;5.80;;;;;;;;;;5116443;28;20222;-90
2022/02/10 20:33:15;;;;;;;11.00;7.63;;;;;;;;;;5113559;28;20213;-87
2022/02/10 20:35:45;;;;;;;8.13;6.07;;;;;;;;;;5113427;28;20199;-87
2022/02/10 20:38:16;;;;;;;8.23;6.63;;;;;;;;;;5113503;28;20191;-86
2022/02/10 20:40:45;;;;;;;10.70;7.10;;;;;;;;;;5113028;28;20180;-87
2022/02/10 20:43:16;;;;;;;10.80;6.63;;;;;;;;;;5112994;28;20264;-87
2022/02/10 20:45:51;;;;;;;9.30;7.20;;;;;;;;;;5114062;28;20245;-87
2022/02/10 20:48:18;;;;;;;8.17;6.87;;;;;;;;;;5113062;28;20191;-87
2022/02/10 20:50:46;;;;;;;12.93;6.77;;;;;;;;;;5113134;28;20255;-87
2022/02/10 20:53:13;;;;;;;7.33;6.53;;;;;;;;;;5113279;28;20199;-87
2022/02/10 20:55:40;;;;;;;7.13;6.37;;;;;;;;;;5113154;28;20251;-87
2022/02/10 20:58:07;;;;;;;8.50;5.63;;;;;;;;;;5112524;28;20290;-87
2022/02/10 21:00:36;;;;;;;8.87;7.17;;;;;;;;;;5113131;28;20791;-87
2022/02/10 21:03:04;;;;;;;9.90;6.97;;;;;;;;;;5112957;28;20664;-86
2022/02/10 21:05:36;;;;;;;8.53;6.97;;;;;;;;;;5112748;28;20238;-87
2022/02/10 21:08:12;;;;;;;9.03;6.83;;;;;;;;;;5113020;28;20220;-87
2022/02/10 21:10:40;;;;;;;8.33;7.47;;;;;;;;;;5112920;28;20210;-87
2022/02/10 21:13:10;;;;;;;9.40;6.33;;;;;;;;;;5112704;28;20725;-87
2022/02/10 21:15:42;;;;;;;8.13;6.17;;;;;;;;;;5112882;28;20609;-88
2022/02/10 21:18:11;;;;;;;7.37;6.50;;;;;;;;;;5112906;28;20649;-88
2022/02/10 21:20:39;;;;;;;7.20;6.07;;;;;;;;;;5112734;28;20572;-88
2022/02/10 21:23:16;;;;;;;8.67;7.27;;;;;;;;;;5112748;28;20191;-88
2022/02/10 21:25:44;;;;;;;10.63;8.87;;;;;;;;;;5112013;28;20274;-88
2022/02/10 21:28:18;;;;;;;14.97;9.90;;;;;;;;;;5112264;28;20250;-88
2022/02/10 21:30:50;;;;;;;13.23;9.67;;;;;;;;;;5112383;28;20297;-88
2022/02/10 21:33:25;;;;;;;9.30;7.20;;;;;;;;;;5112937;28;20257;-87
2022/02/10 21:38:44;;;;;;;6.30;5.07;;;;;;;;;;5082281;28;20231;-88
2022/02/10 22:04:56;;;;;;;8.73;5.17;;;;;;;;;;5016969;28;20207;-87
2022/02/10 22:09:59;;;;;;;8.43;5.27;;;;;;;;;;5013728;28;20710;-87
2022/02/10 22:20:46;;;;;;;7.93;5.07;;;;;;;;;;5013813;28;20238;-87
2022/02/10 22:23:20;;;;;;;82.27;37.63;;;;;;;;;;5012839;28;20188;-87
2022/02/10 22:25:49;;;;;;;32.83;17.27;;;;;;;;;;5028054;28;20637;-87
2022/02/10 22:28:29;;;;;;;28.47;14.27;;;;;;;;;;5039372;28;20682;-87
2022/02/10 22:31:10;;;;;;;13.67;8.47;;;;;;;;;;5058103;27;20228;-86
2022/02/10 22:33:49;;;;;;;13.77;7.50;;;;;;;;;;5135858;27;20193;-85
2022/02/10 22:36:19;;;;;;;8.47;5.97;;;;;;;;;;5135239;27;20216;-86
2022/02/10 22:38:49;;;;;;;7.07;5.97;;;;;;;;;;5135461;27;20179;-86
2022/02/10 22:41:16;;;;;;;7.10;5.93;;;;;;;;;;5135133;27;20186;-85
2022/02/10 22:43:46;;;;;;;8.13;6.53;;;;;;;;;;5126814;27;20200;-86
2022/02/10 22:46:15;;;;;;;8.23;6.57;;;;;;;;;;5130379;27;20259;-86
2022/02/10 22:48:44;;;;;;;6.23;5.63;;;;;;;;;;5135056;27;20199;-86
2022/02/10 22:51:12;;;;;;;8.63;5.27;;;;;;;;;;5128844;27;20218;-86
2022/02/10 22:53:41;;;;;;;5.97;5.13;;;;;;;;;;5134963;27;20678;-85
2022/02/10 22:56:08;;;;;;;6.67;5.37;;;;;;;;;;5134643;27;20191;-86
2022/02/10 22:58:36;;;;;;;5.63;4.60;;;;;;;;;;5134596;27;20195;-86
2022/02/10 23:01:04;;;;;;;5.93;4.83;;;;;;;;;;5134779;27;20586;-86
2022/02/10 23:03:32;;;;;;;7.70;6.40;;;;;;;;;;5134486;27;20206;-85
2022/02/10 23:05:59;;;;;;;5.27;4.70;;;;;;;;;;5135876;27;20198;-86
2022/02/10 23:08:26;;;;;;;5.53;4.40;;;;;;;;;;5136800;27;20191;-85
2022/02/10 23:10:56;;;;;;;5.23;4.37;;;;;;;;;;5134479;27;20273;-85
2022/02/10 23:13:27;;;;;;;5.13;4.40;;;;;;;;;;5134493;27;20209;-85
2022/02/10 23:15:55;;;;;;;6.80;4.53;;;;;;;;;;5134757;27;20187;-85
2022/02/10 23:18:23;;;;;;;6.73;4.57;;;;;;;;;;5134284;27;20205;-85
2022/02/10 23:20:52;;;;;;;4.27;3.47;;;;;;;;;;5134401;27;20190;-85
2022/02/10 23:23:22;;;;;;;5.73;5.27;;;;;;;;;;5134124;27;20210;-85
2022/02/10 23:25:51;;;;;;;4.37;3.93;;;;;;;;;;5134027;27;20198;-85
2022/02/10 23:28:23;;;;;;;4.13;3.73;;;;;;;;;;5126750;27;20614;-85
2022/02/10 23:30:50;;;;;;;5.13;3.57;;;;;;;;;;5113359;28;20227;-84
2022/02/10 23:33:20;;;;;;;4.43;3.70;;;;;;;;;;5111846;28;20198;-85
2022/02/10 23:36:31;;;;;;;3.87;3.57;;;;;;;;;;5112375;28;20207;-84
2022/02/10 23:38:57;;;;;;;4.53;4.13;;;;;;;;;;5113018;28;20277;-84
2022/02/10 23:44:14;;;;;;;5.80;4.23;;;;;;;;;;5113315;28;20182;-85
2022/02/10 23:46:43;;;;;;;5.70;4.53;;;;;;;;;;5113005;28;20199;-85
2022/02/10 23:49:13;;;;;;;6.20;5.00;;;;;;;;;;5113047;28;20203;-85
2022/02/10 23:51:47;;;;;;;7.20;5.80;;;;;;;;;;5113253;28;20211;-85
2022/02/10 23:54:14;;;;;;;6.83;5.00;;;;;;;;;;5112951;28;20188;-85
2022/02/10 23:56:47;;;;;;;7.53;4.63;;;;;;;;;;5112840;28;20203;-85
2022/02/10 23:59:23;;;;;;;5.70;5.20;;;;;;;;;;5112484;28;20729;-84
